createdAt,value
2023-01-11T00:00:57.538Z,79.54
2023-01-11T00:03:25.613Z,79.43
2023-01-11T00:05:58.101Z,79.05
2023-01-11T00:08:28.282Z,79.26
2023-01-11T00:10:56.948Z,78.94
2023-01-11T00:13:26.403Z,79.30
2023-01-11T00:15:54.427Z,79.27
2023-01-11T00:18:22.872Z,79.41
2023-01-11T00:20:50.971Z,79.21
2023-01-11T00:23:19.030Z,79.39
2023-01-11T00:25:47.077Z,79.63
2023-01-11T00:28:15.253Z,79.18
2023-01-11T00:30:45.077Z,79.52
2023-01-11T00:33:13.142Z,79.90
2023-01-11T00:35:41.309Z,79.44
2023-01-11T00:38:09.384Z,79.82
2023-01-11T00:40:37.524Z,79.72
2023-01-11T00:43:22.990Z,79.38
2023-01-11T00:46:15.197Z,79.63
2023-01-11T00:48:43.316Z,79.46
2023-01-11T00:51:11.466Z,79.80
2023-01-11T00:53:39.507Z,79.06
2023-01-11T00:56:08.436Z,79.48
2023-01-11T00:58:36.518Z,79.11
2023-01-11T01:01:09.010Z,79.19
2023-01-11T01:03:37.055Z,79.24
2023-01-11T01:06:05.348Z,78.59
2023-01-11T01:08:33.678Z,79.37
2023-01-11T01:11:02.141Z,79.09
2023-01-11T01:16:17.465Z,78.64
2023-01-11T01:18:45.563Z,79.16
2023-01-11T01:21:13.705Z,79.50
2023-01-11T01:23:41.758Z,79.85
2023-01-11T01:26:10.077Z,79.90
2023-01-11T01:28:38.129Z,80.18
2023-01-11T01:31:06.214Z,79.70
2023-01-11T01:33:36.443Z,79.62
2023-01-11T01:36:06.111Z,80.09
2023-01-11T01:38:34.255Z,80.28
2023-01-11T01:41:03.027Z,79.97
2023-01-11T01:43:51.620Z,79.94
2023-01-11T01:46:22.211Z,80.02
2023-01-11T01:48:57.426Z,80.28
2023-01-11T01:51:32.558Z,80.81
2023-01-11T01:54:07.842Z,80.47
2023-01-11T01:56:43.673Z,80.50
2023-01-11T01:59:17.271Z,80.38
2023-01-11T02:01:49.760Z,81.12
2023-01-11T02:04:26.588Z,80.88
2023-01-11T02:07:05.581Z,81.09
2023-01-11T02:09:45.222Z,81.01
2023-01-11T02:12:14.030Z,81.60
2023-01-11T02:14:45.831Z,81.29
2023-01-11T02:17:14.265Z,80.92
2023-01-11T02:20:00.719Z,81.27
2023-01-11T02:23:17.150Z,80.93
2023-01-11T02:26:36.287Z,81.18
2023-01-11T02:29:14.976Z,81.10
2023-01-11T02:31:52.226Z,81.34
2023-01-11T02:34:37.808Z,81.25
2023-01-11T02:37:28.723Z,81.23
2023-01-11T02:40:12.580Z,81.07
2023-01-11T02:43:10.194Z,80.54
2023-01-11T02:45:53.483Z,80.92
2023-01-11T02:48:32.544Z,80.71
2023-01-11T02:51:10.544Z,81.19
2023-01-11T02:53:47.293Z,80.99
2023-01-11T02:56:21.218Z,80.97
2023-01-11T02:58:54.065Z,80.67
2023-01-11T03:01:23.564Z,80.83
2023-01-11T03:03:53.007Z,80.45
2023-01-11T03:06:26.985Z,80.44
2023-01-11T03:09:20.549Z,80.70
2023-01-11T03:12:32.170Z,80.52
2023-01-11T03:15:19.811Z,80.70
2023-01-11T03:18:05.633Z,80.00
2023-01-11T03:20:39.633Z,80.53
2023-01-11T03:23:20.120Z,80.35
2023-01-11T03:26:04.045Z,80.14
2023-01-11T03:28:40.476Z,80.50
2023-01-11T03:31:19.086Z,80.52
2023-01-11T03:34:01.730Z,80.09
2023-01-11T03:36:40.383Z,80.22
2023-01-11T03:39:19.312Z,79.93
2023-01-11T03:41:52.784Z,80.03
2023-01-11T03:44:23.272Z,79.85
2023-01-11T03:46:59.758Z,79.72
2023-01-11T03:49:36.189Z,79.79
2023-01-11T03:52:10.141Z,79.89
2023-01-11T03:54:39.159Z,79.93
2023-01-11T03:57:14.408Z,80.02
2023-01-11T03:59:43.019Z,79.97
2023-01-11T04:02:17.724Z,79.98
2023-01-11T04:04:47.490Z,80.09
2023-01-11T04:07:16.299Z,80.03
2023-01-11T04:09:44.360Z,79.68
2023-01-11T04:12:12.932Z,79.96
2023-01-11T04:14:40.952Z,79.80
2023-01-11T04:17:09.121Z,80.20
2023-01-11T04:19:37.696Z,79.69
2023-01-11T04:22:07.203Z,79.62
2023-01-11T04:24:35.363Z,79.92
2023-01-11T04:27:03.449Z,79.67
2023-01-11T04:29:31.544Z,79.57
2023-01-11T04:31:59.647Z,79.61
2023-01-11T04:34:27.698Z,79.83
2023-01-11T04:36:55.747Z,80.20
2023-01-11T04:39:25.274Z,80.54
2023-01-11T04:42:11.019Z,80.33
2023-01-11T04:44:39.038Z,80.43
2023-01-11T04:47:07.128Z,80.54
2023-01-11T04:49:35.171Z,80.32
2023-01-11T04:52:03.219Z,80.49
2023-01-11T04:54:32.607Z,80.44
2023-01-11T04:57:00.665Z,80.44
2023-01-11T04:59:28.726Z,80.26
2023-01-11T05:01:56.800Z,80.56
2023-01-11T05:04:24.944Z,80.31
2023-01-11T05:06:53.160Z,80.44
2023-01-11T05:09:21.798Z,80.61
2023-01-11T05:11:51.401Z,80.55
2023-01-11T05:14:19.543Z,80.48
2023-01-11T05:16:47.660Z,80.68
2023-01-11T05:19:17.779Z,80.65
2023-01-11T05:21:45.821Z,81.13
2023-01-11T05:24:16.285Z,81.84
2023-01-11T05:26:46.200Z,82.19
2023-01-11T05:29:18.904Z,82.80
2023-01-11T05:31:47.045Z,82.68
2023-01-11T05:34:17.644Z,82.83
2023-01-11T05:36:45.875Z,82.98
2023-01-11T05:39:15.808Z,83.56
2023-01-11T05:41:44.234Z,83.52
2023-01-11T05:44:40.987Z,83.57
2023-01-11T05:47:08.994Z,83.40
2023-01-11T05:49:37.010Z,83.63
2023-01-11T05:52:05.551Z,83.44
2023-01-11T05:54:33.595Z,83.18
2023-01-11T05:57:01.648Z,83.35
2023-01-11T05:59:32.217Z,83.78
2023-01-11T06:02:00.375Z,83.43
2023-01-11T06:04:28.528Z,83.23
2023-01-11T06:06:56.631Z,83.38
2023-01-11T06:09:24.951Z,83.75
2023-01-11T06:11:53.003Z,83.48
2023-01-11T06:14:21.157Z,83.75
2023-01-11T06:16:50.600Z,83.78
2023-01-11T06:19:19.153Z,84.32
2023-01-11T06:21:47.177Z,84.08
2023-01-11T06:24:15.208Z,84.59
2023-01-11T06:26:43.594Z,84.70
2023-01-11T06:29:11.868Z,85.06
2023-01-11T06:31:39.928Z,85.29
2023-01-11T06:34:09.539Z,85.67
2023-01-11T06:36:38.553Z,85.76
2023-01-11T06:39:07.201Z,86.11
2023-01-11T06:41:35.263Z,85.92
2023-01-11T06:44:03.358Z,86.01
2023-01-11T06:46:31.455Z,86.33
2023-01-11T06:48:59.547Z,86.29
2023-01-11T06:51:28.902Z,86.34
2023-01-11T06:53:56.989Z,86.43
2023-01-11T06:56:24.999Z,86.40
2023-01-11T06:58:53.229Z,86.25
2023-01-11T07:01:21.473Z,86.60
2023-01-11T07:03:49.596Z,86.76
2023-01-11T07:06:17.657Z,86.79
2023-01-11T07:08:47.052Z,86.84
2023-01-11T07:11:15.228Z,86.56
2023-01-11T07:13:43.300Z,86.51
2023-01-11T07:16:11.350Z,86.43
2023-01-11T07:18:39.404Z,86.46
2023-01-11T07:21:07.557Z,86.21
2023-01-11T07:23:35.667Z,86.50
2023-01-11T07:26:05.327Z,86.38
2023-01-11T07:28:33.380Z,86.36
2023-01-11T07:31:01.492Z,86.18
2023-01-11T07:33:29.604Z,86.16
2023-01-11T07:36:00.557Z,86.18
2023-01-11T07:38:29.592Z,86.23
2023-01-11T07:40:57.642Z,85.82
2023-01-11T07:43:26.906Z,86.08
2023-01-11T07:45:55.113Z,86.45
2023-01-11T07:48:26.777Z,86.34
2023-01-11T07:50:55.698Z,86.69
2023-01-11T07:53:25.900Z,86.64
2023-01-11T07:55:56.099Z,87.01
2023-01-11T07:58:26.594Z,87.28
2023-01-11T08:00:54.636Z,86.85
2023-01-11T08:03:22.846Z,87.20
2023-01-11T08:05:52.451Z,87.81
2023-01-11T08:08:20.952Z,87.75
2023-01-11T08:11:10.881Z,87.38
2023-01-11T08:13:57.730Z,87.52
2023-01-11T08:16:27.206Z,88.04
2023-01-11T08:18:55.273Z,88.22
2023-01-11T08:21:23.348Z,88.00
2023-01-11T08:23:53.893Z,87.87
2023-01-11T08:26:23.264Z,87.61
2023-01-11T08:28:53.863Z,87.72
2023-01-11T08:31:22.359Z,88.02
2023-01-11T08:33:50.910Z,88.18
2023-01-11T08:36:19.069Z,88.44
2023-01-11T08:38:47.155Z,88.44
2023-01-11T08:41:15.184Z,88.33
2023-01-11T08:43:43.904Z,88.27
2023-01-11T08:46:13.363Z,88.13
2023-01-11T08:48:41.456Z,88.24
2023-01-11T08:51:09.837Z,88.20
2023-01-11T08:53:37.931Z,88.07
2023-01-11T08:56:06.802Z,88.47
2023-01-11T08:58:34.934Z,88.23
2023-01-11T09:01:04.154Z,88.23
2023-01-11T09:03:34.160Z,88.36
2023-01-11T09:06:02.678Z,88.23
2023-01-11T09:08:31.393Z,87.89
2023-01-11T09:11:00.094Z,87.92
2023-01-11T09:13:28.717Z,88.01
2023-01-11T09:15:57.990Z,87.83
2023-01-11T09:18:26.993Z,87.81
2023-01-11T09:20:56.953Z,87.94
2023-01-11T09:23:24.982Z,87.98
2023-01-11T09:25:53.028Z,88.07
2023-01-11T09:28:21.037Z,87.89
2023-01-11T09:30:49.124Z,87.79
2023-01-11T09:33:17.147Z,88.11
2023-01-11T09:35:46.499Z,87.92
2023-01-11T09:38:16.043Z,87.71
2023-01-11T09:41:00.348Z,87.44
2023-01-11T09:43:31.137Z,87.60
2023-01-11T09:46:08.859Z,87.36
2023-01-11T09:48:44.944Z,87.42
2023-01-11T09:51:16.010Z,86.78
2023-01-11T09:53:52.190Z,86.65
2023-01-11T09:56:40.275Z,87.01
2023-01-11T09:59:22.853Z,87.24
2023-01-11T10:02:04.747Z,87.78
2023-01-11T10:05:09.660Z,87.49
2023-01-11T10:18:37.855Z,88.60
2023-01-11T10:18:38.447Z,87.82
2023-01-11T10:20:01.502Z,88.35
2023-01-11T10:22:40.459Z,88.40
2023-01-11T10:25:21.782Z,88.45
2023-01-11T10:28:00.435Z,88.23
2023-01-11T10:30:53.620Z,87.90
2023-01-11T10:33:52.079Z,88.15
2023-01-11T10:36:50.291Z,87.84
2023-01-11T10:39:46.509Z,88.31
2023-01-11T10:42:22.459Z,87.65
2023-01-11T10:45:05.012Z,87.91
2023-01-11T10:47:44.098Z,87.93
2023-01-11T10:50:25.200Z,87.65
2023-01-11T10:53:02.662Z,87.59
2023-01-11T10:55:45.104Z,87.55
2023-01-11T10:58:32.248Z,87.82
2023-01-11T11:01:19.010Z,88.32
2023-01-11T11:04:20.510Z,88.26
2023-01-11T11:06:59.481Z,87.61
2023-01-11T11:09:39.545Z,87.76
2023-01-11T11:12:13.720Z,87.93
2023-01-11T11:14:52.586Z,87.49
2023-01-11T11:17:27.144Z,87.77
2023-01-11T11:19:55.208Z,87.92
2023-01-11T11:22:23.286Z,88.25
2023-01-11T11:24:59.457Z,88.25
2023-01-11T11:27:34.180Z,87.91
2023-01-11T11:30:03.279Z,88.16
2023-01-11T11:32:37.276Z,88.03
2023-01-11T11:35:08.034Z,87.74
2023-01-11T11:37:41.483Z,87.82
2023-01-11T11:40:31.841Z,87.83
2023-01-11T11:43:20.938Z,87.81
2023-01-11T11:45:55.727Z,87.84
2023-01-11T11:48:27.308Z,88.07
2023-01-11T11:50:58.205Z,88.37
2023-01-11T11:53:42.910Z,88.60
2023-01-11T11:56:24.151Z,89.24
2023-01-11T11:58:53.964Z,89.04
2023-01-11T12:01:28.422Z,89.68
2023-01-11T12:04:02.599Z,89.96
2023-01-11T12:06:31.920Z,89.76
2023-01-11T12:09:03.689Z,89.68
2023-01-11T12:11:36.352Z,90.35
2023-01-11T12:14:17.836Z,90.13
2023-01-11T12:16:47.809Z,90.71
2023-01-11T12:19:36.356Z,90.48
2023-01-11T12:22:19.965Z,90.75
2023-01-11T12:25:03.147Z,91.32
2023-01-11T12:27:43.427Z,91.37
2023-01-11T12:30:23.459Z,91.18
2023-01-11T12:33:23.137Z,91.73
2023-01-11T12:36:04.568Z,91.59
2023-01-11T12:38:41.788Z,91.61
2023-01-11T12:41:50.060Z,92.00
2023-01-11T12:44:39.808Z,91.91
2023-01-11T12:47:42.509Z,91.92
2023-01-11T12:50:21.926Z,91.70
2023-01-11T12:53:15.063Z,91.15
2023-01-11T12:56:02.823Z,91.79
2023-01-11T12:58:39.746Z,91.20
2023-01-11T13:01:40.288Z,91.56
2023-01-11T13:04:39.539Z,91.36
2023-01-11T13:07:25.409Z,91.10
2023-01-11T13:10:13.832Z,90.96
2023-01-11T13:12:51.209Z,91.25
2023-01-11T13:15:34.398Z,91.06
2023-01-11T13:18:16.093Z,91.36
2023-01-11T13:21:01.285Z,91.19
2023-01-11T13:23:40.128Z,91.28
2023-01-11T13:26:22.656Z,90.77
2023-01-11T13:29:00.471Z,91.53
2023-01-11T13:31:30.066Z,91.31
2023-01-11T13:34:06.647Z,91.43
2023-01-11T13:36:43.959Z,91.40
2023-01-11T13:39:21.275Z,91.25
2023-01-11T13:41:55.698Z,91.27
2023-01-11T13:44:28.758Z,92.13
2023-01-11T13:47:07.921Z,91.62
2023-01-11T13:49:52.647Z,92.06
2023-01-11T13:52:32.034Z,91.36
2023-01-11T13:55:07.152Z,91.29
2023-01-11T13:57:51.783Z,91.17
2023-01-11T14:00:27.476Z,91.26
2023-01-11T14:03:12.061Z,91.12
2023-01-11T14:05:58.813Z,91.38
2023-01-11T14:08:57.728Z,91.12
2023-01-11T14:11:43.074Z,90.88
2023-01-11T14:14:37.484Z,90.99
2023-01-11T14:18:05.384Z,90.25
2023-01-11T14:20:45.095Z,90.06
2023-01-11T14:23:16.427Z,89.76
2023-01-11T14:26:25.953Z,89.90
2023-01-11T14:29:16.908Z,89.73
2023-01-11T14:32:13.355Z,90.11
2023-01-11T14:35:26.867Z,90.22
2023-01-11T14:38:24.385Z,90.29
2023-01-11T14:41:49.659Z,90.50
2023-01-11T14:44:49.575Z,90.66
2023-01-11T14:47:38.229Z,90.13
2023-01-11T14:50:28.572Z,90.82
2023-01-11T14:53:03.556Z,90.31
2023-01-11T14:55:40.297Z,90.34
2023-01-11T14:58:25.195Z,90.74
2023-01-11T15:01:11.645Z,90.18
2023-01-11T15:03:57.199Z,90.27
2023-01-11T15:06:25.921Z,89.58
2023-01-11T15:08:56.763Z,88.00
2023-01-11T15:11:38.856Z,87.55
2023-01-11T15:14:32.674Z,86.77
2023-01-11T15:17:21.441Z,85.04
2023-01-11T15:19:53.264Z,85.05
2023-01-11T15:22:31.008Z,84.77
2023-01-11T15:25:02.953Z,84.42
2023-01-11T15:27:36.190Z,84.73
2023-01-11T15:30:28.520Z,83.19
2023-01-11T15:33:29.142Z,83.42
2023-01-11T15:36:06.948Z,83.33
2023-01-11T15:38:43.511Z,83.22
2023-01-11T15:41:35.514Z,82.54
2023-01-11T15:44:35.932Z,82.43
2023-01-11T15:47:42.677Z,82.34
2023-01-11T15:50:39.358Z,82.41
2023-01-11T15:53:59.855Z,82.15
2023-01-11T15:57:13.436Z,81.42
2023-01-11T16:00:31.922Z,81.89
2023-01-11T16:03:55.225Z,82.09
2023-01-11T16:06:41.886Z,82.45
2023-01-11T16:09:43.882Z,82.00
2023-01-11T16:12:41.564Z,82.41
2023-01-11T16:15:39.158Z,82.05
2023-01-11T16:18:15.323Z,81.64
2023-01-11T16:20:56.733Z,81.69
2023-01-11T16:23:25.616Z,82.13
2023-01-11T16:25:59.851Z,82.04
2023-01-11T16:28:29.214Z,82.01
2023-01-11T16:31:01.609Z,82.12
2023-01-11T16:33:33.647Z,81.55
2023-01-11T16:36:07.968Z,80.77
2023-01-11T16:39:01.577Z,81.62
2023-01-11T16:41:42.067Z,81.69
2023-01-11T16:44:23.241Z,81.92
2023-01-11T16:47:12.151Z,82.58
2023-01-11T16:49:42.902Z,82.36
2023-01-11T16:52:48.523Z,82.42
2023-01-11T16:55:29.562Z,82.65
2023-01-11T16:58:02.875Z,82.05
2023-01-11T17:00:38.438Z,81.89
2023-01-11T17:03:23.915Z,81.06
2023-01-11T17:06:15.933Z,80.93
2023-01-11T17:08:47.551Z,81.41
2023-01-11T17:11:34.225Z,80.91
2023-01-11T17:14:28.906Z,80.37
2023-01-11T17:17:02.754Z,80.46
2023-01-11T17:19:33.414Z,80.10
2023-01-11T17:22:07.324Z,80.93
2023-01-11T17:24:41.431Z,81.07
2023-01-11T17:27:22.564Z,81.29
2023-01-11T17:29:55.939Z,81.13
2023-01-11T17:32:34.254Z,79.83
2023-01-11T17:35:07.488Z,79.79
2023-01-11T17:37:36.201Z,79.92
2023-01-11T17:40:08.208Z,80.28
2023-01-11T17:42:53.999Z,80.22
2023-01-11T17:45:26.553Z,79.68
2023-01-11T17:47:56.032Z,79.99
2023-01-11T17:50:29.802Z,79.91
2023-01-11T17:53:06.426Z,79.86
2023-01-11T17:55:35.734Z,80.27
2023-01-11T17:58:19.835Z,79.96
2023-01-11T18:01:18.180Z,79.66
2023-01-11T18:03:50.045Z,79.62
2023-01-11T18:06:33.507Z,80.02
2023-01-11T18:09:05.940Z,79.69
2023-01-11T18:11:37.870Z,79.34
2023-01-11T18:14:18.460Z,79.48
2023-01-11T18:17:00.967Z,78.69
2023-01-11T18:19:36.097Z,78.79
2023-01-11T18:22:05.432Z,78.48
2023-01-11T18:24:43.362Z,79.20
2023-01-11T18:27:31.842Z,79.02
2023-01-11T18:30:06.109Z,79.08
2023-01-11T18:32:43.095Z,78.43
2023-01-11T18:35:19.151Z,77.95
2023-01-11T18:37:50.446Z,78.60
2023-01-11T18:40:21.386Z,79.19
2023-01-11T18:42:53.744Z,79.76
2023-01-11T18:45:21.970Z,78.06
2023-01-11T18:47:52.633Z,78.26
2023-01-11T18:50:22.333Z,77.95
2023-01-11T18:52:50.395Z,78.65
2023-01-11T18:55:18.636Z,78.62
2023-01-11T18:57:47.310Z,78.19
2023-01-11T19:00:18.558Z,78.12
2023-01-11T19:02:47.053Z,78.72
2023-01-11T19:05:19.656Z,78.74
2023-01-11T19:07:48.512Z,78.93
2023-01-11T19:10:18.979Z,78.51
2023-01-11T19:12:47.640Z,78.88
2023-01-11T19:15:17.202Z,78.99
2023-01-11T19:17:45.343Z,78.51
2023-01-11T19:20:14.193Z,78.92
2023-01-11T19:22:43.709Z,78.72
2023-01-11T19:25:12.280Z,78.87
2023-01-11T19:27:40.550Z,78.88
2023-01-11T19:30:10.366Z,79.02
2023-01-11T19:32:38.630Z,78.40
2023-01-11T19:35:08.371Z,78.07
2023-01-11T19:37:38.850Z,77.90
2023-01-11T19:40:10.557Z,78.35
2023-01-11T19:42:40.091Z,78.48
2023-01-11T19:45:09.812Z,78.14
2023-01-11T19:47:37.910Z,78.41
2023-01-11T19:50:07.291Z,78.07
2023-01-11T19:52:35.372Z,77.61
2023-01-11T19:55:03.447Z,77.71
2023-01-11T19:57:32.932Z,77.29
2023-01-11T20:00:01.038Z,77.36
2023-01-11T20:02:29.175Z,77.32
2023-01-11T20:04:57.274Z,77.45
2023-01-11T20:07:25.296Z,77.31
2023-01-11T20:09:53.328Z,77.06
2023-01-11T20:12:21.529Z,76.98
2023-01-11T20:14:53.646Z,76.54
2023-01-11T20:17:21.737Z,76.88
2023-01-11T20:19:54.337Z,76.29
2023-01-11T20:22:22.997Z,76.67
2023-01-11T20:24:51.191Z,77.06
2023-01-11T20:27:19.397Z,76.47
2023-01-11T20:29:47.944Z,76.72
2023-01-11T20:32:39.857Z,76.50
2023-01-11T20:35:07.365Z,76.26
2023-01-11T20:37:35.421Z,76.12
2023-01-11T20:40:03.614Z,76.36
2023-01-11T20:42:32.318Z,76.74
2023-01-11T20:45:00.374Z,76.24
2023-01-11T20:47:29.792Z,76.31
2023-01-11T20:49:57.836Z,76.48
2023-01-11T20:52:25.886Z,76.39
2023-01-11T20:54:54.007Z,76.65
2023-01-11T20:57:22.159Z,76.05
2023-01-11T20:59:50.260Z,76.28
2023-01-11T21:02:18.345Z,76.46
2023-01-11T21:04:47.790Z,75.96
2023-01-11T21:07:15.877Z,75.63
2023-01-11T21:09:43.947Z,76.29
2023-01-11T21:12:12.004Z,76.21
2023-01-11T21:14:40.065Z,76.31
2023-01-11T21:17:09.543Z,76.50
2023-01-11T21:19:37.584Z,76.01
2023-01-11T21:22:07.299Z,75.85
2023-01-11T21:24:38.437Z,75.02
2023-01-11T21:27:06.758Z,74.68
2023-01-11T21:29:35.343Z,74.61
2023-01-11T21:32:03.703Z,74.94
2023-01-11T21:34:31.787Z,74.85
2023-01-11T21:36:59.921Z,74.75
2023-01-11T21:39:29.318Z,74.28
2023-01-11T21:41:58.582Z,73.69
2023-01-11T21:44:33.250Z,74.64
2023-01-11T21:47:02.639Z,74.08
2023-01-11T21:49:31.081Z,73.91
2023-01-11T21:52:00.132Z,73.79
2023-01-11T21:54:29.638Z,74.16
2023-01-11T21:56:57.883Z,74.32
2023-01-11T21:59:26.350Z,74.33
2023-01-11T22:01:54.736Z,73.88
2023-01-11T22:04:23.683Z,73.40
2023-01-11T22:06:54.299Z,73.27
2023-01-11T22:09:24.594Z,73.91
2023-01-11T22:11:54.293Z,72.86
2023-01-11T22:14:22.878Z,72.97
2023-01-11T22:16:51.408Z,72.69
2023-01-11T22:19:19.568Z,72.56
2023-01-11T22:21:47.611Z,72.20
2023-01-11T22:24:16.956Z,72.72
2023-01-11T22:26:45.171Z,73.06
2023-01-11T22:29:15.757Z,72.35
2023-01-11T22:31:48.763Z,72.92
2023-01-11T22:34:17.367Z,73.56
2023-01-11T22:36:46.863Z,71.92
2023-01-11T22:39:19.176Z,73.02
2023-01-11T22:41:48.256Z,73.51
2023-01-11T22:44:18.309Z,73.68
2023-01-11T22:46:47.001Z,73.93
2023-01-11T22:49:19.561Z,72.25
2023-01-11T22:51:47.693Z,72.95
2023-01-11T22:54:16.266Z,72.16
2023-01-11T22:56:44.490Z,72.66
2023-01-11T22:59:12.722Z,72.52
2023-01-11T23:01:43.399Z,72.61
2023-01-11T23:04:15.035Z,73.49
2023-01-11T23:06:44.641Z,73.36
2023-01-11T23:09:16.580Z,72.73
2023-01-11T23:12:03.308Z,73.15
2023-01-11T23:14:33.700Z,73.13
2023-01-11T23:17:06.668Z,72.68
2023-01-11T23:19:36.593Z,73.14
2023-01-11T23:22:05.589Z,73.07
2023-01-11T23:24:33.784Z,72.96
2023-01-11T23:27:01.873Z,72.55
2023-01-11T23:29:30.007Z,73.04
2023-01-11T23:31:58.172Z,72.84
2023-01-11T23:34:27.648Z,72.90
2023-01-11T23:36:55.729Z,72.73
2023-01-11T23:39:24.570Z,72.81
2023-01-11T23:42:09.968Z,72.45
2023-01-11T23:44:38.022Z,73.12
2023-01-11T23:47:25.106Z,74.12
2023-01-11T23:49:57.325Z,74.48
2023-01-11T23:52:28.263Z,75.27
2023-01-11T23:54:57.317Z,75.65
2023-01-11T23:57:27.102Z,76.20
2023-01-11T23:59:55.141Z,77.07
